Dalian Highway — 3FYE5 — position and weather

sailwx.info

Track history (hours):
 
Tides and Currents Weather Stations Pressure Air Temp Water Temp Dewpoint Dewpoint Depression Visibility Wind Speed Wind Dir Waves Ship Positions

Dalian Highway

Last reported at 2017-Oct-19 14:10 UTC. Time now 2017-Oct-20 16:15 UTC.
Position N 34°40' E 138°18'.

Length 199 m; draft 7.9 m.

Type: Cargo ship. MMSI: 357694000.

Date/timePositionNaut miles runAvg speedWind from/ knotsBaromVisibWave heightAir tempDewpointWater temp
2017-Oct-19 14:10N 34°40' E 138°18'2 0.3
2017-Oct-19 07:13N 34°40' E 138°16'0 0.1
2017-Oct-19 00:45N 34°40' E 138°16'17010.5
2017-Oct-18 08:29N 33°57' E 134°56'918.2
2017-Oct-18 08:00N 34°06' E 134°57'814.6
2017-Oct-18 07:29N 34°13' E 134°58'713.6
2017-Oct-18 06:57N 34°20' E 134°59'817.0
2017-Oct-18 06:30N 34°27' E 135°03'713.9
2017-Oct-18 06:00N 34°34' E 135°07'612.0
2017-Oct-18 05:30N 34°37' E 135°01'816.6
2017-Oct-18 05:00N 34°34' E 134°51'712.8
2017-Oct-18 04:29N 34°34' E 134°43'712.8
2017-Oct-18 03:56N 34°40' E 134°48'4 0.6
2017-Oct-17 21:58N 34°43' E 134°51'2 3.6
2017-Oct-17 21:30N 34°41' E 134°49'4 8.5
2017-Oct-17 20:59N 34°39' E 134°45'5 9.5
2017-Oct-17 20:30N 34°35' E 134°43'712.9
2017-Oct-17 19:59N 34°35' E 134°51'815.7
2017-Oct-17 19:30N 34°38' E 134°59'713.5
2017-Oct-17 19:00N 34°35' E 135°06'3 5.9
2017-Oct-17 18:30N 34°32' E 135°08'612.1
2017-Oct-17 18:00N 34°26' E 135°05'815.5
2017-Oct-17 17:30N 34°20' E 135°01'713.9
2017-Oct-17 17:00N 34°13' E 134°59'510.2
2017-Oct-17 16:30N 34°08' E 135°00'4 8.9
2017-Oct-17 16:00N 34°03' E 135°01'611.2
2017-Oct-17 15:30N 33°58' E 135°00'22911.1
2017-Oct-16 18:58N 34°38' E 139°33'714.9
2017-Oct-16 18:30N 34°39' E 139°41'914.8
2017-Oct-16 17:52N 34°40' E 139°52'915.4
2017-Oct-16 17:17N 34°45' E 140°02'415.3
2017-Oct-16 17:01N 34°46' E 140°07'  
Track history (hours):
 
Tides and Currents Weather Stations Pressure Air Temp Water Temp Dewpoint Dewpoint Depression Visibility Wind Speed Wind Dir Waves Ship Positions

Dalian Highway

Last reported at 2017-Oct-19 14:10 UTC. Time now 2017-Oct-20 16:15 UTC.
Position N 34°40' E 138°18'.

Length 199 m; draft 7.9 m.

Type: Cargo ship. MMSI: 357694000.

Date/timePositionNaut miles runAvg speedWind from/ knotsBaromVisibWave heightAir tempDewpointWater temp
2017-Oct-19 14:10N 34°40' E 138°18'2 0.3
2017-Oct-19 07:13N 34°40' E 138°16'0 0.1
2017-Oct-19 00:45N 34°40' E 138°16'17010.5
2017-Oct-18 08:29N 33°57' E 134°56'918.2
2017-Oct-18 08:00N 34°06' E 134°57'814.6
2017-Oct-18 07:29N 34°13' E 134°58'713.6
2017-Oct-18 06:57N 34°20' E 134°59'817.0
2017-Oct-18 06:30N 34°27' E 135°03'713.9
2017-Oct-18 06:00N 34°34' E 135°07'612.0
2017-Oct-18 05:30N 34°37' E 135°01'816.6
2017-Oct-18 05:00N 34°34' E 134°51'712.8
2017-Oct-18 04:29N 34°34' E 134°43'712.8
2017-Oct-18 03:56N 34°40' E 134°48'4 0.6
2017-Oct-17 21:58N 34°43' E 134°51'2 3.6
2017-Oct-17 21:30N 34°41' E 134°49'4 8.5
2017-Oct-17 20:59N 34°39' E 134°45'5 9.5
2017-Oct-17 20:30N 34°35' E 134°43'712.9
2017-Oct-17 19:59N 34°35' E 134°51'815.7
2017-Oct-17 19:30N 34°38' E 134°59'713.5
2017-Oct-17 19:00N 34°35' E 135°06'3 5.9
2017-Oct-17 18:30N 34°32' E 135°08'612.1
2017-Oct-17 18:00N 34°26' E 135°05'815.5
2017-Oct-17 17:30N 34°20' E 135°01'713.9
2017-Oct-17 17:00N 34°13' E 134°59'510.2
2017-Oct-17 16:30N 34°08' E 135°00'4 8.9
2017-Oct-17 16:00N 34°03' E 135°01'611.2
2017-Oct-17 15:30N 33°58' E 135°00'22911.1
2017-Oct-16 18:58N 34°38' E 139°33'714.9
2017-Oct-16 18:30N 34°39' E 139°41'914.8
2017-Oct-16 17:52N 34°40' E 139°52'915.4
2017-Oct-16 17:17N 34°45' E 140°02'415.3
2017-Oct-16 17:01N 34°46' E 140°07'  

Dump ship's entire track history